createdAt,value
2018-06-30T00:00:38.633Z,7.73
2018-06-30T00:03:07.252Z,6.57
2018-06-30T00:05:36.024Z,6.83
2018-06-30T00:08:04.801Z,6.93
2018-06-30T00:10:33.569Z,5.40
2018-06-30T00:13:02.284Z,7.63
2018-06-30T00:15:30.852Z,5.90
2018-06-30T00:17:59.454Z,5.70
2018-06-30T00:20:28.228Z,6.20
2018-06-30T00:22:56.968Z,4.73
2018-06-30T00:25:25.645Z,4.37
2018-06-30T00:27:55.881Z,4.90
2018-06-30T00:30:25.360Z,4.30
2018-06-30T00:32:54.871Z,4.50
2018-06-30T00:35:23.763Z,4.40
2018-06-30T00:37:52.478Z,4.60
2018-06-30T00:40:20.973Z,4.73
2018-06-30T00:42:49.609Z,3.50
2018-06-30T00:45:18.309Z,4.10
2018-06-30T00:47:47.015Z,5.50
2018-06-30T00:50:15.712Z,6.20
2018-06-30T00:52:44.414Z,4.93
2018-06-30T00:55:13.068Z,6.33
2018-06-30T00:57:41.595Z,6.20
2018-06-30T01:00:10.229Z,5.57
2018-06-30T01:02:38.728Z,5.23
2018-06-30T01:05:07.369Z,3.67
2018-06-30T01:07:36.121Z,5.40
2018-06-30T01:10:04.902Z,4.57
2018-06-30T01:12:33.349Z,4.90
2018-06-30T01:15:01.974Z,6.87
2018-06-30T01:17:30.638Z,3.90
2018-06-30T01:19:59.382Z,4.43
2018-06-30T01:22:28.077Z,4.00
2018-06-30T01:24:56.757Z,3.70
2018-06-30T01:27:25.241Z,4.60
2018-06-30T01:29:53.880Z,4.03
2018-06-30T01:32:22.598Z,5.03
2018-06-30T01:34:51.309Z,3.20
2018-06-30T01:37:20.022Z,3.07
2018-06-30T01:39:48.492Z,3.77
2018-06-30T01:42:17.162Z,3.17
2018-06-30T01:44:45.837Z,2.90
2018-06-30T01:47:14.543Z,3.77
2018-06-30T01:49:43.021Z,3.37
2018-06-30T01:52:11.609Z,3.50
2018-06-30T01:54:40.177Z,2.50
2018-06-30T01:57:09.942Z,3.63
2018-06-30T01:59:38.394Z,2.90
2018-06-30T02:02:07.013Z,2.77
2018-06-30T02:04:36.358Z,3.33
2018-06-30T02:07:05.490Z,3.10
2018-06-30T02:09:34.193Z,2.70
2018-06-30T02:12:02.930Z,3.10
2018-06-30T02:14:31.408Z,2.90
2018-06-30T02:16:59.797Z,3.07
2018-06-30T02:19:28.420Z,3.80
2018-06-30T02:21:57.161Z,3.40
2018-06-30T02:24:26.415Z,3.37
2018-06-30T02:26:55.121Z,2.10
2018-06-30T02:29:23.885Z,2.50
2018-06-30T02:31:52.575Z,2.00
2018-06-30T02:34:21.277Z,2.10
2018-06-30T02:36:50.010Z,2.60
2018-06-30T02:39:18.725Z,2.20
2018-06-30T02:41:47.429Z,2.47
2018-06-30T02:44:15.934Z,2.27
2018-06-30T02:46:44.572Z,2.37
2018-06-30T02:49:13.032Z,1.80
2018-06-30T02:51:41.658Z,1.83
2018-06-30T02:54:10.383Z,1.90
2018-06-30T02:56:39.067Z,2.83
2018-06-30T02:59:08.667Z,2.13
2018-06-30T03:01:37.366Z,2.30
2018-06-30T03:04:06.050Z,2.43
2018-06-30T03:06:34.718Z,2.47
2018-06-30T03:09:04.171Z,2.70
2018-06-30T03:11:32.865Z,2.90
2018-06-30T03:14:01.563Z,3.20
2018-06-30T03:16:30.913Z,2.30
2018-06-30T03:18:59.694Z,2.10
2018-06-30T03:21:28.417Z,2.80
2018-06-30T03:23:57.110Z,1.50
2018-06-30T03:26:25.830Z,1.80
2018-06-30T03:28:54.918Z,2.00
2018-06-30T03:31:23.647Z,1.53
2018-06-30T03:33:52.329Z,1.53
2018-06-30T03:36:21.622Z,1.60
2018-06-30T03:38:50.383Z,1.67
2018-06-30T03:41:19.061Z,1.73
2018-06-30T03:43:47.791Z,1.37
2018-06-30T03:46:16.531Z,1.90
2018-06-30T03:48:45.007Z,1.43
2018-06-30T03:51:13.617Z,1.60
2018-06-30T03:53:42.341Z,1.60
2018-06-30T03:56:10.880Z,1.30
2018-06-30T03:58:39.509Z,1.43
2018-06-30T04:01:08.013Z,1.57
2018-06-30T04:03:36.683Z,1.60
2018-06-30T04:06:05.399Z,1.57
2018-06-30T04:08:34.562Z,1.73
2018-06-30T04:11:03.262Z,1.20
2018-06-30T04:13:31.981Z,1.07
2018-06-30T04:16:00.636Z,1.43
2018-06-30T04:18:29.353Z,1.20
2018-06-30T04:20:58.038Z,1.00
2018-06-30T04:23:26.762Z,1.00
2018-06-30T04:25:55.451Z,1.20
2018-06-30T04:28:24.136Z,1.00
2018-06-30T04:30:52.818Z,1.63
2018-06-30T04:33:22.434Z,1.23
2018-06-30T04:35:51.134Z,1.10
2018-06-30T04:38:19.665Z,1.37
2018-06-30T04:40:48.279Z,1.00
2018-06-30T04:43:16.972Z,1.03
2018-06-30T04:45:46.009Z,0.80
2018-06-30T04:48:14.709Z,1.13
2018-06-30T04:50:43.377Z,1.33
2018-06-30T04:53:12.081Z,2.40
2018-06-30T04:55:40.797Z,1.23
2018-06-30T04:58:09.547Z,1.00
2018-06-30T05:00:38.290Z,0.90
2018-06-30T05:03:06.770Z,1.07
2018-06-30T05:05:35.397Z,1.13
2018-06-30T05:08:04.145Z,0.90
2018-06-30T05:10:32.670Z,0.80
2018-06-30T05:13:01.060Z,1.40
2018-06-30T05:15:29.723Z,1.03
2018-06-30T05:17:58.470Z,0.80
2018-06-30T05:20:27.170Z,0.90
2018-06-30T05:22:55.682Z,0.93
2018-06-30T05:25:24.360Z,0.80
2018-06-30T05:27:53.045Z,0.87
2018-06-30T05:30:21.785Z,1.30
2018-06-30T05:32:50.598Z,0.87
2018-06-30T05:35:19.280Z,1.27
2018-06-30T05:37:47.851Z,1.13
2018-06-30T05:40:16.289Z,1.00
2018-06-30T05:42:44.915Z,0.90
2018-06-30T05:45:13.621Z,1.13
2018-06-30T05:47:42.114Z,0.90
2018-06-30T05:50:11.080Z,0.90
2018-06-30T05:52:39.805Z,1.20
2018-06-30T05:55:08.661Z,1.37
2018-06-30T05:57:37.406Z,0.97
2018-06-30T06:00:06.667Z,1.23
2018-06-30T06:02:35.374Z,1.30
2018-06-30T06:05:04.451Z,1.10
2018-06-30T06:07:33.168Z,1.17
2018-06-30T06:10:01.902Z,1.20
2018-06-30T06:12:30.589Z,0.90
2018-06-30T06:15:00.142Z,0.80
2018-06-30T06:17:28.860Z,0.77
2018-06-30T06:19:57.558Z,1.00
2018-06-30T06:22:26.279Z,0.90
2018-06-30T06:24:54.957Z,1.00
2018-06-30T06:27:23.708Z,0.90
2018-06-30T06:29:52.393Z,1.20
2018-06-30T06:32:21.113Z,0.80
2018-06-30T06:34:49.785Z,1.00
2018-06-30T06:37:18.265Z,1.03
2018-06-30T06:39:46.674Z,0.80
2018-06-30T06:42:15.308Z,0.93
2018-06-30T06:44:44.009Z,1.00
2018-06-30T06:47:12.693Z,0.80
2018-06-30T06:49:41.451Z,1.03
2018-06-30T06:52:10.119Z,0.63
2018-06-30T06:54:38.879Z,0.90
2018-06-30T06:57:07.346Z,1.03
2018-06-30T06:59:35.755Z,1.10
2018-06-30T07:02:04.386Z,0.63
2018-06-30T07:04:33.066Z,0.70
2018-06-30T07:07:01.973Z,1.00
2018-06-30T07:09:30.656Z,0.90
2018-06-30T07:11:59.374Z,0.53
2018-06-30T07:14:27.854Z,0.80
2018-06-30T07:16:56.508Z,0.60
2018-06-30T07:19:25.206Z,0.60
2018-06-30T07:21:53.924Z,0.80
2018-06-30T07:24:23.364Z,0.70
2018-06-30T07:26:52.939Z,0.90
2018-06-30T07:29:21.641Z,0.90
2018-06-30T07:31:50.354Z,0.60
2018-06-30T07:34:19.011Z,0.63
2018-06-30T07:36:47.734Z,1.93
2018-06-30T07:39:16.474Z,1.10
2018-06-30T07:41:45.184Z,0.50
2018-06-30T07:44:13.931Z,0.57
2018-06-30T07:46:42.617Z,0.53
2018-06-30T07:49:11.427Z,0.80
2018-06-30T07:51:40.259Z,0.90
2018-06-30T07:54:08.829Z,0.97
2018-06-30T07:56:37.556Z,0.73
2018-06-30T07:59:06.065Z,0.60
2018-06-30T08:01:34.663Z,0.73
2018-06-30T08:04:03.383Z,0.60
2018-06-30T08:06:32.059Z,0.97
2018-06-30T08:09:00.792Z,0.60
2018-06-30T08:11:29.489Z,0.80
2018-06-30T08:13:58.277Z,1.00
2018-06-30T08:16:27.966Z,0.87
2018-06-30T08:18:56.440Z,0.60
2018-06-30T08:21:25.253Z,0.60
2018-06-30T08:23:53.914Z,2.43
2018-06-30T08:26:22.633Z,1.57
2018-06-30T08:28:51.407Z,2.40
2018-06-30T08:31:20.141Z,4.33
2018-06-30T08:33:48.846Z,3.53
2018-06-30T08:36:17.523Z,4.37
2018-06-30T08:38:46.298Z,8.53
2018-06-30T08:41:15.077Z,9.20
2018-06-30T08:43:43.806Z,8.30
2018-06-30T08:46:12.525Z,8.30
2018-06-30T08:48:41.227Z,7.90
2018-06-30T08:51:09.746Z,6.93
2018-06-30T08:53:38.350Z,6.20
2018-06-30T08:56:06.849Z,4.27
2018-06-30T08:58:35.477Z,4.30
2018-06-30T09:01:04.725Z,3.30
2018-06-30T09:03:33.161Z,3.90
2018-06-30T09:06:01.537Z,3.70
2018-06-30T09:08:29.911Z,1.77
2018-06-30T09:10:58.302Z,1.90
2018-06-30T09:13:26.918Z,3.00
2018-06-30T09:15:55.433Z,1.83
2018-06-30T09:18:24.028Z,1.07
2018-06-30T09:20:52.762Z,1.47
2018-06-30T09:23:21.463Z,0.93
2018-06-30T09:25:50.173Z,1.53
2018-06-30T09:28:18.868Z,1.93
2018-06-30T09:30:47.562Z,1.80
2018-06-30T09:33:16.327Z,1.60
2018-06-30T09:35:45.035Z,1.60
2018-06-30T09:38:13.718Z,1.27
2018-06-30T09:40:42.434Z,1.37
2018-06-30T09:43:11.142Z,1.20
2018-06-30T09:45:39.917Z,1.17
2018-06-30T09:48:08.677Z,1.10
2018-06-30T09:50:37.375Z,1.03
2018-06-30T09:53:06.094Z,1.10
2018-06-30T09:55:34.769Z,1.27
2018-06-30T09:58:03.453Z,0.83
2018-06-30T10:00:37.664Z,0.93
2018-06-30T10:03:06.602Z,1.00
2018-06-30T10:05:35.046Z,1.27
2018-06-30T10:08:03.465Z,0.90
2018-06-30T10:10:32.047Z,1.03
2018-06-30T10:13:00.774Z,1.70
2018-06-30T10:15:29.450Z,1.60
2018-06-30T10:17:58.201Z,1.30
2018-06-30T10:20:26.874Z,1.50
2018-06-30T10:22:55.661Z,1.10
2018-06-30T10:25:24.150Z,0.60
2018-06-30T10:27:52.753Z,1.10
2018-06-30T10:30:21.465Z,0.70
2018-06-30T10:32:50.148Z,0.87
2018-06-30T10:35:18.847Z,0.80
2018-06-30T10:37:47.673Z,0.70
2018-06-30T10:40:16.396Z,0.93
2018-06-30T10:42:45.186Z,0.57
2018-06-30T10:45:13.910Z,0.90
2018-06-30T10:47:42.611Z,0.80
2018-06-30T10:50:12.175Z,0.80
2018-06-30T10:52:40.875Z,1.50
2018-06-30T10:55:09.740Z,0.60
2018-06-30T10:57:38.494Z,0.60
2018-06-30T11:00:06.987Z,1.17
2018-06-30T11:02:35.561Z,0.63
2018-06-30T11:05:04.554Z,2.63
2018-06-30T11:07:33.271Z,1.37
2018-06-30T11:10:01.934Z,0.83
2018-06-30T11:12:30.444Z,0.80
2018-06-30T11:14:59.095Z,1.37
2018-06-30T11:17:27.636Z,0.87
2018-06-30T11:19:55.959Z,1.40
2018-06-30T11:22:24.647Z,0.60
2018-06-30T11:24:53.301Z,0.90
2018-06-30T11:27:22.033Z,0.97
2018-06-30T11:29:50.490Z,0.60
2018-06-30T11:32:19.137Z,0.60
2018-06-30T11:34:47.850Z,1.87
2018-06-30T11:37:16.316Z,1.00
2018-06-30T11:39:44.975Z,1.03
2018-06-30T11:42:13.632Z,0.90
2018-06-30T11:44:42.350Z,1.03
2018-06-30T11:47:11.081Z,0.90
2018-06-30T11:49:39.743Z,1.00
2018-06-30T11:52:08.447Z,0.87
2018-06-30T11:54:37.138Z,1.20
2018-06-30T11:57:05.652Z,0.70
2018-06-30T11:59:34.259Z,0.60
2018-06-30T12:02:02.982Z,1.57
2018-06-30T12:04:31.612Z,3.57
2018-06-30T12:07:00.283Z,3.00
2018-06-30T12:09:28.993Z,1.80
2018-06-30T12:11:57.694Z,1.10
2018-06-30T12:14:26.436Z,1.70
2018-06-30T12:16:54.920Z,2.60
2018-06-30T12:19:23.561Z,1.90
2018-06-30T12:21:52.449Z,5.97
2018-06-30T12:24:20.884Z,2.30
2018-06-30T12:26:49.608Z,1.40
2018-06-30T12:29:18.335Z,1.43
2018-06-30T12:31:46.867Z,1.60
2018-06-30T12:34:15.453Z,1.83
2018-06-30T12:36:44.237Z,2.50
2018-06-30T12:39:12.925Z,1.90
2018-06-30T12:41:41.636Z,2.03
2018-06-30T12:44:10.324Z,4.13
2018-06-30T12:46:39.040Z,3.80
2018-06-30T12:49:07.528Z,3.70
2018-06-30T12:51:36.156Z,3.83
2018-06-30T12:54:04.871Z,3.03
2018-06-30T12:56:33.561Z,5.37
2018-06-30T12:59:02.302Z,3.03
2018-06-30T13:01:30.787Z,1.00
2018-06-30T13:03:59.432Z,1.20
2018-06-30T13:06:28.148Z,1.13
2018-06-30T13:08:57.866Z,2.47
2018-06-30T13:11:26.333Z,0.80
2018-06-30T13:13:55.313Z,1.57
2018-06-30T13:16:23.808Z,0.93
2018-06-30T13:18:52.445Z,1.07
2018-06-30T13:21:21.182Z,0.90
2018-06-30T13:23:49.856Z,1.20
2018-06-30T13:26:19.175Z,0.90
2018-06-30T13:28:47.902Z,0.90
2018-06-30T13:31:16.538Z,1.00
2018-06-30T13:33:45.241Z,3.90
2018-06-30T13:36:13.989Z,1.17
2018-06-30T13:38:42.715Z,0.60
2018-06-30T13:41:11.378Z,1.20
2018-06-30T13:43:40.097Z,9.90
2018-06-30T13:46:08.715Z,8.70
2018-06-30T13:48:37.410Z,1.17
2018-06-30T13:51:06.101Z,3.80
2018-06-30T13:53:34.820Z,1.13
2018-06-30T13:56:03.589Z,1.27
2018-06-30T13:58:33.201Z,1.40
2018-06-30T14:01:01.909Z,1.00
2018-06-30T14:03:30.577Z,0.93
2018-06-30T14:05:59.318Z,1.30
2018-06-30T14:08:28.039Z,0.80
2018-06-30T14:10:56.806Z,0.80
2018-06-30T14:13:25.513Z,0.70
2018-06-30T14:15:54.706Z,1.13
2018-06-30T14:18:23.459Z,1.40
2018-06-30T14:20:52.085Z,2.43
2018-06-30T14:23:20.876Z,0.90
2018-06-30T14:25:49.552Z,1.60
2018-06-30T14:28:18.096Z,1.20
2018-06-30T14:30:46.689Z,1.00
2018-06-30T14:33:15.387Z,1.57
2018-06-30T14:35:44.089Z,1.33
2018-06-30T14:38:12.775Z,1.03
2018-06-30T14:40:41.474Z,3.73
2018-06-30T14:43:10.196Z,1.70
2018-06-30T14:45:38.878Z,1.87
2018-06-30T14:48:07.369Z,1.23
2018-06-30T14:50:36.514Z,0.93
2018-06-30T14:53:05.196Z,0.90
2018-06-30T14:55:33.870Z,0.87
2018-06-30T14:58:03.269Z,0.90
2018-06-30T15:00:32.369Z,1.30
2018-06-30T15:03:01.735Z,0.70
2018-06-30T15:05:31.299Z,0.97
2018-06-30T15:08:00.214Z,3.33
2018-06-30T15:10:29.672Z,7.20
2018-06-30T15:12:59.491Z,3.33
2018-06-30T15:15:28.681Z,1.90
2018-06-30T15:17:58.190Z,1.87
2018-06-30T15:20:27.101Z,1.53
2018-06-30T15:22:55.810Z,3.67
2018-06-30T15:25:24.525Z,4.10
2018-06-30T15:27:53.210Z,4.13
2018-06-30T15:30:21.970Z,3.17
2018-06-30T15:32:50.672Z,3.90
2018-06-30T15:35:19.397Z,4.30
2018-06-30T15:37:48.121Z,4.23
2018-06-30T15:40:16.814Z,4.47
2018-06-30T15:42:45.545Z,3.17
2018-06-30T15:45:14.221Z,4.00
2018-06-30T15:47:42.923Z,1.80
2018-06-30T15:50:11.610Z,2.33
2018-06-30T15:52:40.286Z,1.70
2018-06-30T15:55:09.030Z,1.03
2018-06-30T15:57:37.718Z,1.20
2018-06-30T16:00:07.410Z,1.60
2018-06-30T16:02:36.145Z,1.10
2018-06-30T16:05:04.851Z,1.70
2018-06-30T16:07:33.598Z,1.73
2018-06-30T16:10:02.347Z,2.10
2018-06-30T16:12:31.004Z,5.60
2018-06-30T16:14:59.693Z,3.70
2018-06-30T16:17:28.155Z,1.97
2018-06-30T16:19:56.748Z,1.80
2018-06-30T16:22:25.433Z,0.70
2018-06-30T16:24:54.129Z,0.80
2018-06-30T16:27:22.846Z,0.93
2018-06-30T16:29:51.345Z,0.90
2018-06-30T16:32:20.066Z,3.33
2018-06-30T16:34:48.745Z,2.37
2018-06-30T16:37:18.258Z,2.30
2018-06-30T16:39:47.011Z,1.63
2018-06-30T16:42:15.807Z,1.90
2018-06-30T16:44:44.352Z,3.00
2018-06-30T16:47:12.950Z,1.70
2018-06-30T16:49:41.782Z,1.43
2018-06-30T16:52:10.520Z,1.23
2018-06-30T16:54:39.011Z,2.03
2018-06-30T16:57:07.746Z,1.63
2018-06-30T16:59:36.236Z,2.80
2018-06-30T17:02:04.843Z,1.50
2018-06-30T17:04:33.353Z,1.23
2018-06-30T17:07:01.774Z,2.90
2018-06-30T17:09:30.216Z,4.10
2018-06-30T17:11:58.829Z,1.90
2018-06-30T17:14:27.562Z,1.60
2018-06-30T17:16:56.294Z,3.70
2018-06-30T17:19:24.973Z,2.33
2018-06-30T17:21:53.454Z,2.10
2018-06-30T17:24:22.062Z,1.80
2018-06-30T17:26:50.567Z,1.80
2018-06-30T17:29:18.964Z,1.63
2018-06-30T17:31:47.567Z,2.27
2018-06-30T17:34:16.334Z,2.90
2018-06-30T17:36:45.342Z,2.70
2018-06-30T17:39:14.962Z,8.00
2018-06-30T17:41:43.495Z,14.43
2018-06-30T17:44:12.127Z,2.00
2018-06-30T17:46:40.835Z,0.90
2018-06-30T17:49:10.010Z,0.97
2018-06-30T17:51:38.975Z,1.77
2018-06-30T17:54:08.355Z,2.50
2018-06-30T17:56:37.806Z,1.90
2018-06-30T17:59:07.212Z,2.10
2018-06-30T18:01:35.948Z,2.10
2018-06-30T18:04:04.643Z,1.00
2018-06-30T18:06:33.334Z,1.13
2018-06-30T18:09:01.998Z,1.10
2018-06-30T18:11:30.725Z,1.10
2018-06-30T18:13:59.422Z,2.33
2018-06-30T18:16:28.090Z,2.00
2018-06-30T18:18:56.797Z,4.63
2018-06-30T18:21:25.538Z,6.20
2018-06-30T18:23:54.247Z,9.57
2018-06-30T18:26:22.769Z,2.43
2018-06-30T18:28:51.408Z,1.20
2018-06-30T18:31:20.113Z,1.87
2018-06-30T18:33:48.590Z,1.10
2018-06-30T18:36:18.147Z,1.47
2018-06-30T18:38:46.861Z,1.30
2018-06-30T18:41:15.663Z,0.90
2018-06-30T18:43:44.156Z,1.60
2018-06-30T18:46:12.836Z,1.90
2018-06-30T18:48:41.324Z,1.00
2018-06-30T18:51:10.030Z,1.10
2018-06-30T18:53:38.649Z,1.00
2018-06-30T18:56:07.336Z,1.27
2018-06-30T18:58:35.837Z,1.13
2018-06-30T19:01:04.502Z,1.50
2018-06-30T19:03:33.747Z,1.40
2018-06-30T19:06:02.214Z,1.30
2018-06-30T19:08:30.866Z,2.37
2018-06-30T19:10:59.552Z,1.70
2018-06-30T19:13:28.288Z,1.67
2018-06-30T19:15:57.054Z,2.63
2018-06-30T19:18:25.793Z,1.93
2018-06-30T19:20:54.503Z,2.00
2018-06-30T19:23:23.193Z,1.70
2018-06-30T19:25:51.905Z,2.03
2018-06-30T19:28:20.870Z,2.30
2018-06-30T19:30:49.489Z,2.20
2018-06-30T19:33:17.980Z,2.20
2018-06-30T19:35:46.586Z,1.90
2018-06-30T19:38:15.437Z,2.10
2018-06-30T19:40:44.133Z,2.37
2018-06-30T19:43:12.607Z,5.53
2018-06-30T19:45:41.028Z,6.73
2018-06-30T19:48:09.672Z,9.77
2018-06-30T19:50:38.392Z,6.57
2018-06-30T19:53:06.945Z,3.80
2018-06-30T19:55:35.529Z,2.20
2018-06-30T19:58:03.980Z,3.20
2018-06-30T20:00:32.631Z,3.70
2018-06-30T20:03:01.360Z,2.47
2018-06-30T20:05:30.174Z,5.20
2018-06-30T20:07:58.902Z,4.63
2018-06-30T20:10:27.597Z,3.57
2018-06-30T20:12:56.310Z,2.83
2018-06-30T20:15:24.982Z,1.30
2018-06-30T20:17:53.741Z,2.13
2018-06-30T20:20:22.414Z,3.80
2018-06-30T20:22:51.114Z,3.27
2018-06-30T20:25:19.825Z,3.47
2018-06-30T20:27:48.534Z,3.43
2018-06-30T20:30:17.013Z,4.20
2018-06-30T20:32:45.459Z,3.17
2018-06-30T20:35:14.169Z,2.07
2018-06-30T20:37:42.905Z,2.73
2018-06-30T20:40:11.612Z,2.50
2018-06-30T20:42:40.313Z,2.30
2018-06-30T20:45:09.329Z,3.30
2018-06-30T20:47:38.150Z,2.00
2018-06-30T20:50:06.757Z,1.80
2018-06-30T20:52:35.470Z,2.30
2018-06-30T20:55:04.217Z,1.27
2018-06-30T20:57:32.920Z,2.37
2018-06-30T21:00:01.727Z,2.00
2018-06-30T21:02:30.417Z,2.00
2018-06-30T21:04:59.198Z,1.83
2018-06-30T21:07:27.871Z,1.57
2018-06-30T21:09:56.614Z,1.10
2018-06-30T21:12:25.716Z,1.77
2018-06-30T21:14:54.345Z,1.40
2018-06-30T21:17:23.036Z,1.20
2018-06-30T21:19:51.743Z,1.17
2018-06-30T21:22:20.510Z,1.67
2018-06-30T21:24:49.275Z,1.47
2018-06-30T21:27:17.972Z,1.17
2018-06-30T21:29:47.274Z,1.43
2018-06-30T21:32:16.066Z,1.43
2018-06-30T21:34:44.815Z,1.27
2018-06-30T21:37:13.541Z,1.17
2018-06-30T21:39:43.064Z,1.23
2018-06-30T21:42:11.774Z,1.67
2018-06-30T21:44:40.486Z,1.70
2018-06-30T21:47:09.012Z,1.80
2018-06-30T21:49:37.649Z,1.50
2018-06-30T21:52:06.368Z,1.40
2018-06-30T21:54:35.058Z,1.60
2018-06-30T21:57:03.850Z,1.60
2018-06-30T21:59:32.473Z,1.53
2018-06-30T22:02:01.172Z,1.50
2018-06-30T22:04:29.869Z,1.53
2018-06-30T22:06:58.562Z,1.40
2018-06-30T22:09:27.275Z,1.07
2018-06-30T22:11:56.013Z,1.60
2018-06-30T22:14:24.686Z,1.40
2018-06-30T22:16:53.382Z,1.30
2018-06-30T22:19:22.090Z,1.30
2018-06-30T22:21:50.796Z,1.33
2018-06-30T22:24:19.472Z,1.43
2018-06-30T22:26:48.154Z,1.50
2018-06-30T22:29:16.846Z,1.57
2018-06-30T22:31:45.541Z,1.47
2018-06-30T22:34:14.269Z,1.37
2018-06-30T22:36:42.943Z,1.90
2018-06-30T22:39:15.377Z,1.17
2018-06-30T22:41:44.053Z,1.10
2018-06-30T22:44:12.763Z,0.90
2018-06-30T22:46:41.537Z,1.40
2018-06-30T22:49:10.265Z,1.20
2018-06-30T22:51:38.958Z,1.20
2018-06-30T22:54:07.682Z,1.20
2018-06-30T22:56:36.368Z,1.30
2018-06-30T22:59:04.850Z,1.30
2018-06-30T23:01:33.475Z,1.40
2018-06-30T23:04:02.182Z,1.20
2018-06-30T23:06:30.712Z,1.53
2018-06-30T23:08:59.387Z,1.10
2018-06-30T23:11:28.065Z,1.17
2018-06-30T23:13:56.770Z,1.37
2018-06-30T23:16:25.510Z,1.50
2018-06-30T23:18:54.021Z,1.23
2018-06-30T23:21:22.649Z,0.93
2018-06-30T23:23:51.377Z,1.10
2018-06-30T23:26:20.073Z,1.07
2018-06-30T23:28:48.824Z,1.90
2018-06-30T23:31:17.549Z,1.13
2018-06-30T23:33:46.280Z,1.53
2018-06-30T23:36:14.991Z,1.30
2018-06-30T23:38:43.689Z,1.27
2018-06-30T23:41:12.387Z,1.40
2018-06-30T23:43:41.059Z,1.20
2018-06-30T23:46:09.759Z,1.27
2018-06-30T23:48:38.467Z,1.27
2018-06-30T23:51:06.932Z,1.30
2018-06-30T23:53:35.311Z,1.20
2018-06-30T23:56:03.986Z,1.40
2018-06-30T23:58:32.827Z,1.33
